Tropical Cyclones
[Index]
Main Index Home Page Stock Weather Photos Extreme Storms Discussion Storm News and Storm Chasing Reports Tropical Cyclones / Hurricanes / Typhoons Weather Data and Links Wild Fires / Bushfires Weather Observation Techniques Weather Picture Catalogue Tornado Pictures and Reports Stock Video Footage and DVDs for sale
Season 1992-1993 Tropical Cyclone FINELLA Track Map
Season 1992-1993 Summaries: [BoM-AU] [JTWC-AU] [JTWC-SIO] [JTWC-SPAC] [JTWC-SH]
<<- Previous TC | JTWC 1992-1993 Season | Next TC ->>

click for intensity scale information  Lat/long Grid: Show Hide

 Date Labels: Show Hide

Joint Typhoon Warning Centre Cyclone Data

Name: FINELLA

10 Feb 1993 00:00 UTC to 16 Feb 1993 06:00 UTC

    date/time    lat    long     hPa   cat  kts
1993-02-10 00   16.0    52.0                  15          
1993-02-10 06   16.5    51.4                  15          
1993-02-10 12   17.1    50.8                  20          
1993-02-10 18   17.6    50.3                  20          
1993-02-11 00   18.2    50.1                  20          
1993-02-11 06   18.7    50.0                  20          
1993-02-11 12   19.2    50.0                  20          
1993-02-11 18   19.8    50.1                  20          
1993-02-12 00   20.3    50.3                  20          
1993-02-12 06   20.7    50.5                  25          
1993-02-12 12   21.0    50.8                  25          
1993-02-12 18   21.3    50.9                  30          
1993-02-13 00   21.9    51.0                  30          
1993-02-13 06   22.7    51.1            1     40          
1993-02-13 12   23.5    51.6            1     50          
1993-02-13 18   24.5    52.6            2     60          
1993-02-14 00   25.3    53.7            2     70          
1993-02-14 06   26.2    54.8            3     75          
1993-02-14 12   27.1    55.9            3     75          
1993-02-14 18   27.9    56.9            3     75          
1993-02-15 00   28.9    57.2            2     70          
1993-02-15 06   29.8    57.5            2     65          
1993-02-15 12   30.5    58.0            2     60          
1993-02-15 18   31.1    58.7            2     55          
1993-02-16 00   32.2    59.5            1     45          
1993-02-16 06   33.3    60.3            1     40          
Winds are 1-min average.

Tropical cyclone tracks developed by Michael Bath using data from the Joint Typhoon Warning Centre Best Tracks and Google Maps.


[Australian Severe Weather index] [Copyright Notice] [Email Contacts] [Search This Site] [Privacy Policy]
Document: tropical_cyclone_finella.htm Updated: 18 September 2016